Time;durP1;ratioP1;P1;durP2;ratioP2;P2;SDS_P1;SDS_P2;PMS_P1;PMS_P2;Temp;Humidity;BMP_temperature;BMP_pressure;BME280_temperature;BME280_humidity;BME280_pressure;Samples;Min_cycle;Max_cycle;Signal;HPM_P1;HPM_P2
2023/06/13 00:01:17;;;;;;;3.35;2.40;;;;;;;;;;4997483;28;20084;-61
2023/06/13 00:03:47;;;;;;;4.05;2.50;;;;;;;;;;4997718;28;20390;-61
2023/06/13 00:06:15;;;;;;;2.78;2.58;;;;;;;;;;4997485;28;20031;-61
2023/06/13 00:08:41;;;;;;;2.30;2.08;;;;;;;;;;4995887;28;20418;-61
2023/06/13 00:11:06;;;;;;;2.65;2.28;;;;;;;;;;4997588;28;20045;-61
2023/06/13 00:13:32;;;;;;;2.05;1.95;;;;;;;;;;4997631;28;20034;-61
2023/06/13 00:15:58;;;;;;;2.08;1.98;;;;;;;;;;4997652;28;20080;-60
2023/06/13 00:18:24;;;;;;;2.80;2.40;;;;;;;;;;4997782;28;20073;-64
2023/06/13 00:20:50;;;;;;;2.72;2.53;;;;;;;;;;4997411;28;20030;-64
2023/06/13 00:23:16;;;;;;;3.55;2.25;;;;;;;;;;5012546;28;20475;-64
2023/06/13 00:25:41;;;;;;;2.80;2.45;;;;;;;;;;4997557;28;20365;-64
2023/06/13 00:28:07;;;;;;;2.30;2.10;;;;;;;;;;4997580;28;20030;-63
2023/06/13 00:30:33;;;;;;;2.33;1.98;;;;;;;;;;4997598;28;20023;-63
2023/06/13 00:32:59;;;;;;;1.90;1.80;;;;;;;;;;4997407;28;20443;-64
2023/06/13 00:35:25;;;;;;;1.95;1.85;;;;;;;;;;4997374;28;20491;-64
2023/06/13 00:37:54;;;;;;;2.15;1.95;;;;;;;;;;4996039;28;20058;-65
2023/06/13 00:40:23;;;;;;;3.42;2.38;;;;;;;;;;4995762;28;20545;-64
2023/06/13 00:42:50;;;;;;;2.25;2.05;;;;;;;;;;4997067;28;20040;-65
2023/06/13 00:45:23;;;;;;;4.63;2.20;;;;;;;;;;4996814;28;20529;-65
2023/06/13 00:47:57;;;;;;;2.28;2.00;;;;;;;;;;5012561;28;20030;-65
2023/06/13 00:50:26;;;;;;;2.80;2.60;;;;;;;;;;4997039;28;20105;-64
2023/06/13 00:53:02;;;;;;;2.50;1.85;;;;;;;;;;5011859;28;20450;-65
2023/06/13 00:55:28;;;;;;;2.05;1.90;;;;;;;;;;4996991;28;20027;-65
2023/06/13 00:57:58;;;;;;;1.70;1.60;;;;;;;;;;4996757;28;20042;-64
2023/06/13 01:00:25;;;;;;;3.33;2.17;;;;;;;;;;5010836;28;20125;-64
2023/06/13 01:02:59;;;;;;;3.20;2.22;;;;;;;;;;4996885;28;20088;-65
2023/06/13 01:05:28;;;;;;;2.25;2.10;;;;;;;;;;5011694;28;20121;-65
2023/06/13 01:07:57;;;;;;;2.38;2.22;;;;;;;;;;4996533;28;20054;-61
2023/06/13 01:10:27;;;;;;;2.50;2.30;;;;;;;;;;4995234;28;20364;-61
2023/06/13 01:13:00;;;;;;;2.35;2.15;;;;;;;;;;4996480;28;20030;-61
2023/06/13 01:15:27;;;;;;;2.83;2.00;;;;;;;;;;4995269;28;20038;-61
2023/06/13 01:17:57;;;;;;;1.90;1.80;;;;;;;;;;5011899;28;20045;-61
2023/06/13 01:20:27;;;;;;;2.40;2.08;;;;;;;;;;4995442;28;20470;-65
2023/06/13 01:23:08;;;;;;;2.33;2.00;;;;;;;;;;4995676;28;20108;-61
2023/06/13 01:25:37;;;;;;;2.22;2.03;;;;;;;;;;4996355;28;20407;-63
2023/06/13 01:28:03;;;;;;;5.78;2.08;;;;;;;;;;4995077;28;20041;-63
2023/06/13 01:30:28;;;;;;;2.00;1.90;;;;;;;;;;4996048;28;20022;-66
2023/06/13 01:32:54;;;;;;;3.03;1.83;;;;;;;;;;4996396;28;20106;-65
2023/06/13 01:35:21;;;;;;;2.08;1.92;;;;;;;;;;4996186;28;20054;-66
2023/06/13 01:37:47;;;;;;;3.03;1.83;;;;;;;;;;4994808;28;20046;-66
2023/06/13 01:40:15;;;;;;;1.55;1.45;;;;;;;;;;5010941;28;20033;-66
2023/06/13 01:42:40;;;;;;;1.88;1.77;;;;;;;;;;5010630;28;20035;-63
2023/06/13 01:45:06;;;;;;;1.85;1.75;;;;;;;;;;5011034;28;20085;-63
2023/06/13 01:47:38;;;;;;;2.17;1.50;;;;;;;;;;4994583;28;20019;-63
2023/06/13 01:50:10;;;;;;;2.08;1.50;;;;;;;;;;4995574;28;20447;-63
2023/06/13 01:52:35;;;;;;;2.33;1.77;;;;;;;;;;4994584;28;20022;-63
2023/06/13 01:55:07;;;;;;;1.80;1.70;;;;;;;;;;5010975;28;20421;-63
2023/06/13 01:57:37;;;;;;;1.92;1.60;;;;;;;;;;4995542;28;20049;-64
2023/06/13 02:00:04;;;;;;;1.95;1.77;;;;;;;;;;5010950;28;20383;-63
2023/06/13 02:02:40;;;;;;;2.22;2.03;;;;;;;;;;4995802;28;20053;-63
2023/06/13 02:05:08;;;;;;;2.80;1.85;;;;;;;;;;4995740;28;20451;-63
2023/06/13 02:07:36;;;;;;;3.70;1.90;;;;;;;;;;4995510;28;20451;-63
2023/06/13 02:10:04;;;;;;;2.15;1.95;;;;;;;;;;4994277;28;20038;-65
2023/06/13 02:12:30;;;;;;;3.75;1.80;;;;;;;;;;4977864;28;20084;-66
2023/06/13 02:14:56;;;;;;;1.80;1.63;;;;;;;;;;4994400;28;20133;-64
2023/06/13 02:17:26;;;;;;;2.60;1.80;;;;;;;;;;4995431;28;20336;-64
2023/06/13 02:19:52;;;;;;;2.10;1.88;;;;;;;;;;4995381;28;20039;-62
2023/06/13 02:22:18;;;;;;;1.77;1.67;;;;;;;;;;4995215;28;20061;-61
2023/06/13 02:24:43;;;;;;;1.95;1.85;;;;;;;;;;4993993;28;20403;-61
2023/06/13 02:27:08;;;;;;;2.20;1.95;;;;;;;;;;4994930;28;20382;-62
2023/06/13 02:29:38;;;;;;;2.33;2.13;;;;;;;;;;4994004;28;20061;-63
2023/06/13 02:32:04;;;;;;;2.50;2.30;;;;;;;;;;4995206;28;20038;-63
2023/06/13 02:34:29;;;;;;;2.50;2.30;;;;;;;;;;4995173;28;20030;-63
2023/06/13 02:36:54;;;;;;;2.55;2.35;;;;;;;;;;4995268;28;20042;-63
2023/06/13 02:39:20;;;;;;;3.35;2.20;;;;;;;;;;4995041;28;20038;-63
2023/06/13 02:41:45;;;;;;;2.17;1.88;;;;;;;;;;5009807;28;20060;-61
2023/06/13 02:44:11;;;;;;;2.15;1.95;;;;;;;;;;4994239;28;20039;-61
2023/06/13 02:46:36;;;;;;;2.70;2.35;;;;;;;;;;5010002;28;20026;-61
2023/06/13 02:49:02;;;;;;;3.20;2.92;;;;;;;;;;4993683;28;20166;-61
2023/06/13 02:51:27;;;;;;;4.28;2.88;;;;;;;;;;4993326;28;20025;-63
2023/06/13 02:53:53;;;;;;;3.85;2.78;;;;;;;;;;4993920;28;20037;-63
2023/06/13 02:56:19;;;;;;;3.10;2.75;;;;;;;;;;5009849;28;20041;-63
2023/06/13 02:58:44;;;;;;;3.20;3.00;;;;;;;;;;4994427;28;20042;-63
2023/06/13 03:01:10;;;;;;;3.20;2.90;;;;;;;;;;4993292;28;20030;-62
2023/06/13 03:03:37;;;;;;;2.85;2.65;;;;;;;;;;4993549;28;20414;-62
2023/06/13 03:06:04;;;;;;;3.40;2.92;;;;;;;;;;4993253;28;20096;-61
2023/06/13 03:08:35;;;;;;;4.15;2.35;;;;;;;;;;5009218;28;20010;-61
2023/06/13 03:11:01;;;;;;;3.63;2.28;;;;;;;;;;4993170;28;20034;-60
2023/06/13 03:13:28;;;;;;;2.28;2.08;;;;;;;;;;4992866;28;20387;-60
2023/06/13 03:15:56;;;;;;;3.22;1.98;;;;;;;;;;4992987;28;20166;-60
2023/06/13 03:18:23;;;;;;;4.63;2.15;;;;;;;;;;5009847;28;20120;-60
2023/06/13 03:20:49;;;;;;;2.47;1.70;;;;;;;;;;5009505;28;20118;-61
2023/06/13 03:23:18;;;;;;;3.67;1.88;;;;;;;;;;4993770;28;20023;-62
2023/06/13 03:25:45;;;;;;;3.67;1.88;;;;;;;;;;4997710;28;20088;-63
2023/06/13 03:28:11;;;;;;;1.90;1.80;;;;;;;;;;4998636;28;20022;-63
2023/06/13 03:30:37;;;;;;;3.83;1.88;;;;;;;;;;5013782;28;20034;-63
2023/06/13 03:33:03;;;;;;;1.98;1.88;;;;;;;;;;4997169;28;20092;-63
2023/06/13 03:35:32;;;;;;;1.92;1.83;;;;;;;;;;4997318;28;20100;-63
2023/06/13 03:37:57;;;;;;;1.75;1.65;;;;;;;;;;4998449;28;20117;-63
2023/06/13 03:40:24;;;;;;;4.45;2.10;;;;;;;;;;4997544;28;20390;-64
2023/06/13 03:42:53;;;;;;;2.65;1.80;;;;;;;;;;4996730;28;20030;-64
2023/06/13 03:45:19;;;;;;;1.80;1.70;;;;;;;;;;5013048;28;20031;-63
2023/06/13 03:47:45;;;;;;;2.08;1.98;;;;;;;;;;5013273;28;20022;-65
2023/06/13 03:50:10;;;;;;;1.95;1.75;;;;;;;;;;4996670;28;20069;-64
2023/06/13 03:52:35;;;;;;;2.10;1.80;;;;;;;;;;5013123;28;20025;-65
2023/06/13 03:55:01;;;;;;;2.10;1.90;;;;;;;;;;4998216;28;20344;-66
2023/06/13 03:57:26;;;;;;;2.22;1.50;;;;;;;;;;4997835;28;20513;-65
2023/06/13 03:59:52;;;;;;;2.38;1.98;;;;;;;;;;4996693;28;20482;-65
2023/06/13 04:02:19;;;;;;;2.40;1.80;;;;;;;;;;4996496;28;20125;-66
2023/06/13 04:04:46;;;;;;;3.10;1.95;;;;;;;;;;4996534;28;20066;-65
2023/06/13 04:07:12;;;;;;;1.70;1.60;;;;;;;;;;4980759;28;20034;-65
2023/06/13 04:09:37;;;;;;;1.70;1.60;;;;;;;;;;5000304;28;20060;-62
2023/06/13 04:12:02;;;;;;;1.80;1.70;;;;;;;;;;5010129;28;20026;-62
2023/06/13 04:14:28;;;;;;;2.92;1.88;;;;;;;;;;5011354;28;20033;-63
2023/06/13 04:16:53;;;;;;;2.28;1.63;;;;;;;;;;5005287;28;20030;-63
2023/06/13 04:19:19;;;;;;;2.08;1.90;;;;;;;;;;4995156;28;20041;-59
2023/06/13 04:21:48;;;;;;;2.92;1.77;;;;;;;;;;4996310;28;20034;-68
2023/06/13 04:24:16;;;;;;;2.28;1.63;;;;;;;;;;4996513;28;20057;-71
2023/06/13 04:26:45;;;;;;;1.73;1.60;;;;;;;;;;4996548;28;20417;-71
2023/06/13 04:29:13;;;;;;;2.88;2.00;;;;;;;;;;4995842;28;20082;-71
2023/06/13 04:31:42;;;;;;;2.50;1.90;;;;;;;;;;4996323;28;20084;-72
2023/06/13 04:34:07;;;;;;;1.98;1.88;;;;;;;;;;4997255;28;20050;-69
2023/06/13 04:36:35;;;;;;;2.15;1.83;;;;;;;;;;4996556;28;20398;-69
2023/06/13 04:39:01;;;;;;;2.75;1.63;;;;;;;;;;4996680;28;20022;-69
2023/06/13 04:41:27;;;;;;;1.70;1.60;;;;;;;;;;4995401;28;20512;-69
2023/06/13 04:43:53;;;;;;;2.38;1.63;;;;;;;;;;4995144;28;20054;-69
2023/06/13 04:46:18;;;;;;;1.95;1.85;;;;;;;;;;4996194;28;20513;-69
2023/06/13 04:48:44;;;;;;;2.10;2.00;;;;;;;;;;4996647;28;20065;-71
2023/06/13 04:51:09;;;;;;;3.53;2.03;;;;;;;;;;4996200;28;20018;-70
2023/06/13 04:53:37;;;;;;;2.17;1.80;;;;;;;;;;4995359;28;20023;-70
2023/06/13 04:56:03;;;;;;;2.13;1.92;;;;;;;;;;4995350;28;20030;-70
2023/06/13 04:58:29;;;;;;;1.67;1.58;;;;;;;;;;4993154;28;20037;-70
2023/06/13 05:00:56;;;;;;;2.47;2.10;;;;;;;;;;4992600;28;20034;-70
2023/06/13 05:03:23;;;;;;;2.80;1.80;;;;;;;;;;4994051;28;20022;-70
2023/06/13 05:05:50;;;;;;;1.63;1.52;;;;;;;;;;4977061;28;20103;-70
2023/06/13 05:08:19;;;;;;;2.17;1.80;;;;;;;;;;4995336;28;20033;-67
2023/06/13 05:10:44;;;;;;;1.80;1.50;;;;;;;;;;4994053;28;20069;-67
2023/06/13 05:13:11;;;;;;;2.22;2.05;;;;;;;;;;4995412;28;20062;-67
2023/06/13 05:15:37;;;;;;;2.03;1.45;;;;;;;;;;4994760;28;20026;-67
2023/06/13 05:18:06;;;;;;;2.78;1.73;;;;;;;;;;4994239;28;20109;-67
2023/06/13 05:20:32;;;;;;;3.25;1.90;;;;;;;;;;4994897;28;20030;-58
2023/06/13 05:23:00;;;;;;;1.38;1.15;;;;;;;;;;4995009;28;20421;-59
2023/06/13 05:25:25;;;;;;;1.90;1.70;;;;;;;;;;4976651;28;20038;-60
2023/06/13 05:27:51;;;;;;;1.73;1.60;;;;;;;;;;4993918;28;20467;-59
2023/06/13 05:30:16;;;;;;;3.00;1.60;;;;;;;;;;4995553;28;20038;-59
2023/06/13 05:32:42;;;;;;;1.90;1.80;;;;;;;;;;4995438;28;20073;-58
2023/06/13 05:35:08;;;;;;;2.03;1.83;;;;;;;;;;4995706;28;20180;-59
2023/06/13 05:37:37;;;;;;;2.05;1.60;;;;;;;;;;4995646;28;20074;-59
2023/06/13 05:40:04;;;;;;;2.03;1.90;;;;;;;;;;4996009;28;20030;-59
2023/06/13 05:42:29;;;;;;;2.45;1.90;;;;;;;;;;4994618;28;20065;-59
2023/06/13 05:44:54;;;;;;;2.03;1.85;;;;;;;;;;4978218;28;20066;-59
2023/06/13 05:47:21;;;;;;;3.20;2.08;;;;;;;;;;4995193;28;20038;-59
2023/06/13 05:49:46;;;;;;;3.30;2.75;;;;;;;;;;4996127;28;20080;-59
2023/06/13 05:52:11;;;;;;;2.90;1.88;;;;;;;;;;4994772;28;20083;-59
2023/06/13 05:54:37;;;;;;;2.35;2.00;;;;;;;;;;4994688;28;20089;-59
2023/06/13 05:57:02;;;;;;;2.47;1.92;;;;;;;;;;4993922;28;20093;-59
2023/06/13 05:59:27;;;;;;;2.63;2.10;;;;;;;;;;4996054;28;20097;-58
2023/06/13 06:01:53;;;;;;;2.20;2.00;;;;;;;;;;4995405;28;20113;-59
2023/06/13 06:04:18;;;;;;;2.13;1.98;;;;;;;;;;4994685;28;20034;-59
2023/06/13 06:06:43;;;;;;;2.33;1.80;;;;;;;;;;4993788;28;20026;-59
2023/06/13 06:09:09;;;;;;;3.33;2.63;;;;;;;;;;4993712;28;20038;-59
2023/06/13 06:11:35;;;;;;;2.08;1.88;;;;;;;;;;4993130;28;20031;-59
2023/06/13 06:14:00;;;;;;;2.10;1.90;;;;;;;;;;4993621;28;20058;-59
2023/06/13 06:16:26;;;;;;;2.03;1.80;;;;;;;;;;4994407;28;20040;-58
2023/06/13 06:18:53;;;;;;;2.03;1.83;;;;;;;;;;4994459;28;20117;-59
2023/06/13 06:21:19;;;;;;;2.08;1.50;;;;;;;;;;4994977;28;20022;-59
2023/06/13 06:23:45;;;;;;;1.70;1.60;;;;;;;;;;4994858;28;20398;-59
2023/06/13 06:26:11;;;;;;;4.50;1.70;;;;;;;;;;4994912;28;20026;-59
2023/06/13 06:28:36;;;;;;;2.03;1.52;;;;;;;;;;4994911;28;20088;-58
2023/06/13 06:31:05;;;;;;;1.58;1.48;;;;;;;;;;4994794;28;20030;-59
2023/06/13 06:33:30;;;;;;;2.00;1.42;;;;;;;;;;4977423;28;20036;-59
2023/06/13 06:35:55;;;;;;;1.65;1.42;;;;;;;;;;4994687;28;20098;-59
2023/06/13 06:38:21;;;;;;;1.13;1.13;;;;;;;;;;4994720;28;20121;-58
2023/06/13 06:40:46;;;;;;;2.13;1.48;;;;;;;;;;4994679;28;20058;-58
2023/06/13 06:43:11;;;;;;;3.28;1.60;;;;;;;;;;4993428;28;20394;-59
2023/06/13 06:45:37;;;;;;;1.60;1.50;;;;;;;;;;4994483;28;20433;-59
2023/06/13 06:48:03;;;;;;;1.50;1.40;;;;;;;;;;4994697;28;20030;-58
2023/06/13 06:50:29;;;;;;;2.10;1.50;;;;;;;;;;4994506;28;20015;-58
2023/06/13 06:52:55;;;;;;;2.63;1.63;;;;;;;;;;4993269;28;20053;-59
2023/06/13 06:55:20;;;;;;;2.67;1.42;;;;;;;;;;4994474;28;20085;-58
2023/06/13 06:57:46;;;;;;;2.33;1.60;;;;;;;;;;4993588;28;20050;-58
2023/06/13 07:00:14;;;;;;;1.90;1.80;;;;;;;;;;4994212;28;20046;-59
2023/06/13 07:02:41;;;;;;;1.65;1.55;;;;;;;;;;4977307;28;20030;-58
2023/06/13 07:05:06;;;;;;;1.80;1.70;;;;;;;;;;4994182;28;20061;-58
2023/06/13 07:07:32;;;;;;;1.48;1.48;;;;;;;;;;4994229;28;20033;-58
2023/06/13 07:09:58;;;;;;;1.60;1.50;;;;;;;;;;4994234;28;20026;-58
2023/06/13 07:12:23;;;;;;;1.88;1.50;;;;;;;;;;4994253;28;20025;-58
2023/06/13 07:14:48;;;;;;;2.30;1.60;;;;;;;;;;4994197;28;20081;-58
2023/06/13 07:17:14;;;;;;;1.60;1.50;;;;;;;;;;4994191;28;20042;-59
2023/06/13 07:19:39;;;;;;;1.80;1.70;;;;;;;;;;4994103;28;20030;-58
2023/06/13 07:22:04;;;;;;;2.10;1.30;;;;;;;;;;4992910;28;20084;-58
2023/06/13 07:24:30;;;;;;;2.35;1.30;;;;;;;;;;4993997;28;20046;-58
2023/06/13 07:26:55;;;;;;;1.50;1.40;;;;;;;;;;4994118;28;20019;-58
2023/06/13 07:29:20;;;;;;;1.52;1.42;;;;;;;;;;4994057;28;20113;-59
2023/06/13 07:31:45;;;;;;;1.40;1.23;;;;;;;;;;4994206;28;20030;-58
2023/06/13 07:34:11;;;;;;;1.45;1.17;;;;;;;;;;4994035;28;20422;-58
2023/06/13 07:36:37;;;;;;;3.40;1.40;;;;;;;;;;4994113;28;20026;-58
2023/06/13 07:39:13;;;;;;;1.10;1.10;;;;;;;;;;4993967;28;20085;-58
2023/06/13 07:41:38;;;;;;;2.22;1.17;;;;;;;;;;4994058;28;20516;-59
2023/06/13 07:44:05;;;;;;;1.60;1.20;;;;;;;;;;4993851;28;20105;-58
2023/06/13 07:46:30;;;;;;;1.90;1.60;;;;;;;;;;4993896;28;20040;-58
2023/06/13 07:48:56;;;;;;;1.83;1.63;;;;;;;;;;4994083;28;20109;-58
2023/06/13 07:51:21;;;;;;;2.72;1.50;;;;;;;;;;4993869;28;20031;-59
2023/06/13 07:53:46;;;;;;;2.00;1.38;;;;;;;;;;4993878;28;20080;-58
2023/06/13 07:56:12;;;;;;;1.67;1.58;;;;;;;;;;4993821;28;20546;-58
2023/06/13 07:58:38;;;;;;;1.77;1.27;;;;;;;;;;4976227;28;20101;-59
2023/06/13 08:01:03;;;;;;;2.55;1.40;;;;;;;;;;4993786;28;20031;-58
2023/06/13 08:03:29;;;;;;;1.58;1.25;;;;;;;;;;4993668;28;20034;-58
2023/06/13 08:05:54;;;;;;;1.42;1.20;;;;;;;;;;4992447;28;20037;-58
2023/06/13 08:08:19;;;;;;;1.42;1.33;;;;;;;;;;4993671;28;20030;-59
2023/06/13 08:10:46;;;;;;;1.48;1.38;;;;;;;;;;4996592;28;20027;-59
2023/06/13 08:13:11;;;;;;;1.33;1.23;;;;;;;;;;4997376;28;20386;-58
2023/06/13 08:15:38;;;;;;;2.22;1.75;;;;;;;;;;4996084;28;20080;-59
2023/06/13 08:18:04;;;;;;;1.48;1.38;;;;;;;;;;4997298;28;20476;-58
2023/06/13 08:20:29;;;;;;;1.67;1.58;;;;;;;;;;4995991;28;20030;-59
2023/06/13 08:22:56;;;;;;;3.13;2.92;;;;;;;;;;4997224;28;20041;-58
2023/06/13 08:25:21;;;;;;;1.70;1.60;;;;;;;;;;4995919;28;20505;-62
2023/06/13 08:27:46;;;;;;;3.33;1.63;;;;;;;;;;4997093;28;20030;-62
2023/06/13 08:30:12;;;;;;;2.42;1.40;;;;;;;;;;4997173;28;20014;-62
2023/06/13 08:32:38;;;;;;;1.80;1.70;;;;;;;;;;4995770;28;20437;-62
2023/06/13 08:35:04;;;;;;;2.30;1.40;;;;;;;;;;4995875;28;20486;-62
2023/06/13 08:37:30;;;;;;;1.55;1.42;;;;;;;;;;4996897;28;20035;-62
2023/06/13 08:39:55;;;;;;;1.67;1.58;;;;;;;;;;4997101;28;20038;-62
2023/06/13 08:42:20;;;;;;;2.05;1.45;;;;;;;;;;4996834;28;20050;-62
2023/06/13 08:44:46;;;;;;;1.30;1.20;;;;;;;;;;4996714;28;20466;-62
2023/06/13 08:47:12;;;;;;;1.40;1.40;;;;;;;;;;4996754;28;20023;-62
2023/06/13 08:49:37;;;;;;;1.70;1.20;;;;;;;;;;4996705;28;20061;-62
2023/06/13 08:52:05;;;;;;;1.70;1.60;;;;;;;;;;4996735;28;20039;-62
2023/06/13 08:54:31;;;;;;;2.60;1.70;;;;;;;;;;4995464;28;20037;-62
2023/06/13 08:56:58;;;;;;;3.08;1.27;;;;;;;;;;4995275;28;20046;-62
2023/06/13 08:59:24;;;;;;;1.40;1.30;;;;;;;;;;4996517;28;20074;-62
2023/06/13 09:01:50;;;;;;;1.50;1.40;;;;;;;;;;4995301;28;20055;-62
2023/06/13 09:04:16;;;;;;;1.92;1.30;;;;;;;;;;4996332;28;20478;-62
2023/06/13 09:06:42;;;;;;;2.72;1.55;;;;;;;;;;4996358;28;20026;-62
2023/06/13 09:09:07;;;;;;;1.27;1.25;;;;;;;;;;4996351;28;20038;-62
2023/06/13 09:11:36;;;;;;;1.48;1.38;;;;;;;;;;4978990;28;20045;-62
2023/06/13 09:14:02;;;;;;;2.63;1.40;;;;;;;;;;4996286;28;20034;-62
2023/06/13 09:16:28;;;;;;;1.30;1.30;;;;;;;;;;4996244;28;20035;-62
2023/06/13 09:18:54;;;;;;;9.25;2.70;;;;;;;;;;4996305;28;20081;-62
2023/06/13 09:21:20;;;;;;;2.38;1.63;;;;;;;;;;4995204;28;20034;-62
2023/06/13 09:23:46;;;;;;;3.83;1.70;;;;;;;;;;4995983;28;20039;-62
2023/06/13 09:26:13;;;;;;;1.83;1.60;;;;;;;;;;4996311;28;20526;-62
2023/06/13 09:28:40;;;;;;;5.47;2.30;;;;;;;;;;4996088;28;20481;-62
2023/06/13 09:31:06;;;;;;;1.30;1.30;;;;;;;;;;4978896;28;20038;-62
2023/06/13 09:33:31;;;;;;;2.15;1.23;;;;;;;;;;4996060;28;20034;-62
2023/06/13 09:35:57;;;;;;;1.88;1.30;;;;;;;;;;4995861;28;20029;-62
2023/06/13 09:38:23;;;;;;;2.17;1.20;;;;;;;;;;4995802;28;20026;-62
2023/06/13 09:40:49;;;;;;;2.20;1.33;;;;;;;;;;4994539;28;20030;-62
2023/06/13 09:43:15;;;;;;;1.38;1.27;;;;;;;;;;4995711;28;20433;-62
2023/06/13 09:45:42;;;;;;;1.42;1.33;;;;;;;;;;4995600;28;20030;-62
2023/06/13 09:48:07;;;;;;;2.33;1.58;;;;;;;;;;4995643;28;20026;-62
2023/06/13 09:50:33;;;;;;;1.80;1.23;;;;;;;;;;4995553;28;20015;-62
2023/06/13 09:52:58;;;;;;;1.55;1.33;;;;;;;;;;4995579;28;20062;-62
2023/06/13 09:55:23;;;;;;;2.63;1.42;;;;;;;;;;4995509;28;20044;-62
2023/06/13 09:57:52;;;;;;;1.67;1.58;;;;;;;;;;4995254;28;20054;-62
2023/06/13 10:00:17;;;;;;;1.60;1.40;;;;;;;;;;4994129;28;20482;-62
2023/06/13 10:02:43;;;;;;;2.38;1.35;;;;;;;;;;4995386;28;20033;-62
2023/06/13 10:05:08;;;;;;;2.33;1.30;;;;;;;;;;4993976;28;20062;-62
2023/06/13 10:07:34;;;;;;;1.45;1.40;;;;;;;;;;4995290;28;20386;-62
2023/06/13 10:10:00;;;;;;;1.70;1.10;;;;;;;;;;4995197;28;20481;-62
2023/06/13 10:12:25;;;;;;;1.50;1.40;;;;;;;;;;4995245;28;20165;-62
2023/06/13 10:14:54;;;;;;;3.30;1.67;;;;;;;;;;4995210;28;20026;-62
2023/06/13 10:17:20;;;;;;;3.10;1.55;;;;;;;;;;4995038;28;20034;-62
2023/06/13 10:19:46;;;;;;;1.60;1.50;;;;;;;;;;4993774;28;20030;-62
2023/06/13 10:22:12;;;;;;;1.40;1.30;;;;;;;;;;4994941;28;20108;-62
2023/06/13 10:24:38;;;;;;;1.50;1.40;;;;;;;;;;4994947;28;20032;-62
2023/06/13 10:27:05;;;;;;;1.95;1.50;;;;;;;;;;4994924;28;20462;-62
2023/06/13 10:29:30;;;;;;;1.50;1.08;;;;;;;;;;4994894;28;20378;-62
2023/06/13 10:31:56;;;;;;;1.10;1.10;;;;;;;;;;4994758;28;20088;-62
2023/06/13 10:34:40;;;;;;;2.75;1.50;;;;;;;;;;4994758;28;20037;-62
2023/06/13 10:37:23;;;;;;;3.67;1.30;;;;;;;;;;4993826;28;20030;-62
2023/06/13 10:39:49;;;;;;;2.70;1.67;;;;;;;;;;4994855;28;20042;-62
2023/06/13 10:42:22;;;;;;;1.35;1.13;;;;;;;;;;4994615;28;20034;-62
2023/06/13 10:44:47;;;;;;;2.55;1.05;;;;;;;;;;4994582;28;20121;-62
2023/06/13 10:47:17;;;;;;;2.70;1.50;;;;;;;;;;4994620;28;20057;-62
2023/06/13 10:49:43;;;;;;;3.05;1.17;;;;;;;;;;4994585;28;20305;-62
2023/06/13 10:52:10;;;;;;;2.28;1.33;;;;;;;;;;4994480;28;20085;-62
2023/06/13 10:54:37;;;;;;;1.50;1.23;;;;;;;;;;4994509;28;20077;-62
2023/06/13 10:57:03;;;;;;;2.60;1.10;;;;;;;;;;4994341;28;20609;-62
2023/06/13 10:59:39;;;;;;;1.20;1.15;;;;;;;;;;4976962;28;20537;-62
2023/06/13 11:02:08;;;;;;;1.60;1.20;;;;;;;;;;4994323;28;20041;-62
2023/06/13 11:04:33;;;;;;;3.78;1.30;;;;;;;;;;4993151;28;20034;-62
2023/06/13 11:07:28;;;;;;;1.30;1.20;;;;;;;;;;4993062;28;20018;-62
2023/06/13 11:10:02;;;;;;;1.52;1.10;;;;;;;;;;4981764;28;20038;-62
2023/06/13 11:12:28;;;;;;;1.00;1.00;;;;;;;;;;4994192;28;20063;-62
2023/06/13 11:14:56;;;;;;;2.15;1.10;;;;;;;;;;4994232;28;20023;-62
2023/06/13 11:17:21;;;;;;;2.65;1.33;;;;;;;;;;4994363;28;20038;-62
2023/06/13 11:19:46;;;;;;;1.17;1.05;;;;;;;;;;4994158;28;20038;-62
2023/06/13 11:22:13;;;;;;;2.22;1.05;;;;;;;;;;4992879;28;20364;-62
2023/06/13 11:24:40;;;;;;;1.48;1.20;;;;;;;;;;4994105;28;20089;-62
2023/06/13 11:27:07;;;;;;;1.20;1.20;;;;;;;;;;4994117;28;20035;-62
2023/06/13 11:29:33;;;;;;;4.07;1.20;;;;;;;;;;4992986;28;20057;-62
2023/06/13 11:32:00;;;;;;;3.80;1.30;;;;;;;;;;4992955;28;20022;-62
2023/06/13 11:34:28;;;;;;;2.45;1.13;;;;;;;;;;4994137;28;20030;-62
2023/06/13 11:36:55;;;;;;;1.27;1.10;;;;;;;;;;4992944;28;20473;-62
2023/06/13 11:39:23;;;;;;;2.72;1.10;;;;;;;;;;4993908;28;20030;-62
2023/06/13 11:41:48;;;;;;;0.98;0.98;;;;;;;;;;4993934;28;20058;-62
2023/06/13 11:44:14;;;;;;;1.40;1.20;;;;;;;;;;4994394;28;20073;-62
2023/06/13 11:46:43;;;;;;;0.90;0.90;;;;;;;;;;4997833;28;20019;-62
2023/06/13 11:49:17;;;;;;;1.65;0.90;;;;;;;;;;4997844;28;20063;-62
2023/06/13 11:51:43;;;;;;;1.00;1.00;;;;;;;;;;4997856;28;20022;-62
2023/06/13 11:54:09;;;;;;;1.75;0.98;;;;;;;;;;4980390;28;20034;-62
2023/06/13 11:56:36;;;;;;;4.40;1.38;;;;;;;;;;5006429;28;20043;-62
2023/06/13 11:59:16;;;;;;;1.27;1.10;;;;;;;;;;5037041;28;20370;-62
2023/06/13 12:01:42;;;;;;;1.10;1.00;;;;;;;;;;5037036;28;20036;-62
2023/06/13 12:04:10;;;;;;;1.05;0.95;;;;;;;;;;5036887;28;20036;-62
2023/06/13 12:06:38;;;;;;;2.67;1.63;;;;;;;;;;5037059;28;20029;-62
2023/06/13 12:09:04;;;;;;;1.90;0.90;;;;;;;;;;5037017;28;20465;-62
2023/06/13 12:11:31;;;;;;;1.27;1.17;;;;;;;;;;5036935;28;20034;-62
2023/06/13 12:14:00;;;;;;;2.85;1.10;;;;;;;;;;5036963;28;20108;-62
2023/06/13 12:16:31;;;;;;;1.13;1.10;;;;;;;;;;5036468;28;20079;-62
2023/06/13 12:18:57;;;;;;;1.27;1.13;;;;;;;;;;5036756;28;20116;-62
2023/06/13 12:21:29;;;;;;;1.05;1.00;;;;;;;;;;5036678;28;20064;-62
2023/06/13 12:23:59;;;;;;;0.98;0.98;;;;;;;;;;5051851;28;20041;-62
2023/06/13 12:26:25;;;;;;;1.33;1.23;;;;;;;;;;5036631;28;20028;-62
2023/06/13 12:28:52;;;;;;;1.58;1.48;;;;;;;;;;5036576;28;20022;-62
2023/06/13 12:31:27;;;;;;;1.27;1.20;;;;;;;;;;5051801;28;20076;-62
2023/06/13 12:34:02;;;;;;;1.38;1.20;;;;;;;;;;5036419;28;20105;-62
2023/06/13 12:36:32;;;;;;;1.17;1.10;;;;;;;;;;5068600;28;20070;-62
2023/06/13 12:38:59;;;;;;;2.20;1.27;;;;;;;;;;5036361;28;20167;-62
2023/06/13 12:41:26;;;;;;;1.45;1.23;;;;;;;;;;5036417;28;20049;-62
2023/06/13 12:43:51;;;;;;;1.70;1.30;;;;;;;;;;5036120;28;20025;-62
2023/06/13 12:46:16;;;;;;;0.90;0.90;;;;;;;;;;5051600;28;20033;-62
2023/06/13 12:48:43;;;;;;;1.20;1.10;;;;;;;;;;5036111;28;20026;-62
2023/06/13 12:51:25;;;;;;;0.90;0.90;;;;;;;;;;5051418;28;20021;-62
2023/06/13 12:53:50;;;;;;;0.90;0.90;;;;;;;;;;5036099;28;20025;-62
2023/06/13 12:56:15;;;;;;;5.18;1.15;;;;;;;;;;5049902;28;20440;-62
2023/06/13 12:58:42;;;;;;;2.60;1.17;;;;;;;;;;5035939;28;20018;-62
2023/06/13 13:01:07;;;;;;;1.63;1.20;;;;;;;;;;5035907;28;20041;-62
2023/06/13 13:03:34;;;;;;;1.63;1.23;;;;;;;;;;5035949;28;20022;-62
2023/06/13 13:06:00;;;;;;;1.33;1.08;;;;;;;;;;5051080;28;20091;-62
2023/06/13 13:08:26;;;;;;;1.73;1.20;;;;;;;;;;5035851;28;20032;-62
2023/06/13 13:10:51;;;;;;;2.40;1.00;;;;;;;;;;5035818;28;20482;-62
2023/06/13 13:13:17;;;;;;;1.52;1.00;;;;;;;;;;5035648;28;20025;-62
2023/06/13 13:15:42;;;;;;;1.40;1.00;;;;;;;;;;5035619;28;20060;-62
2023/06/13 13:18:09;;;;;;;0.73;0.73;;;;;;;;;;5035550;28;20509;-62
2023/06/13 13:20:34;;;;;;;1.02;1.02;;;;;;;;;;5067705;28;20041;-62
2023/06/13 13:23:00;;;;;;;2.22;1.13;;;;;;;;;;5035464;28;20440;-62
2023/06/13 13:25:25;;;;;;;0.90;0.90;;;;;;;;;;5035412;28;20488;-62
2023/06/13 13:27:50;;;;;;;4.30;0.95;;;;;;;;;;5035564;28;20032;-62
2023/06/13 13:30:17;;;;;;;1.30;1.00;;;;;;;;;;5035437;28;20087;-62
2023/06/13 13:32:43;;;;;;;1.35;1.08;;;;;;;;;;5035444;28;20060;-62
2023/06/13 13:35:09;;;;;;;2.92;1.20;;;;;;;;;;5035317;28;20041;-59
2023/06/13 13:37:34;;;;;;;2.90;1.10;;;;;;;;;;5051222;28;20029;-59
2023/06/13 13:40:01;;;;;;;1.13;1.08;;;;;;;;;;5035236;28;20047;-59
2023/06/13 13:42:26;;;;;;;2.53;1.20;;;;;;;;;;5035197;28;20057;-59
2023/06/13 13:44:57;;;;;;;2.25;1.05;;;;;;;;;;5035039;28;20053;-59
2023/06/13 13:47:23;;;;;;;1.65;1.02;;;;;;;;;;5034217;28;20033;-59
2023/06/13 13:49:48;;;;;;;1.25;0.90;;;;;;;;;;5049382;28;20033;-59
2023/06/13 13:52:14;;;;;;;2.03;0.90;;;;;;;;;;5034439;28;20121;-59
2023/06/13 13:54:39;;;;;;;2.03;1.17;;;;;;;;;;5034328;28;20068;-59
2023/06/13 13:57:06;;;;;;;1.83;0.95;;;;;;;;;;5034260;28;20041;-59
2023/06/13 13:59:32;;;;;;;0.90;0.90;;;;;;;;;;5034970;28;20084;-59
2023/06/13 14:01:57;;;;;;;0.82;0.82;;;;;;;;;;5049594;28;20030;-59
2023/06/13 14:04:22;;;;;;;1.13;1.00;;;;;;;;;;5034471;28;20049;-59
2023/06/13 14:06:48;;;;;;;1.20;1.10;;;;;;;;;;5033797;28;20543;-59
2023/06/13 14:09:16;;;;;;;0.98;0.98;;;;;;;;;;5034240;28;20036;-59
2023/06/13 14:11:41;;;;;;;1.02;1.02;;;;;;;;;;5034422;28;20104;-59
2023/06/13 14:14:06;;;;;;;0.95;0.73;;;;;;;;;;5034170;28;20112;-59
2023/06/13 14:16:32;;;;;;;1.30;1.30;;;;;;;;;;5034529;28;20405;-59
2023/06/13 14:18:58;;;;;;;5.55;2.53;;;;;;;;;;5032553;28;20037;-59
2023/06/13 14:21:24;;;;;;;2.60;2.50;;;;;;;;;;5032602;28;20040;-59
2023/06/13 14:23:49;;;;;;;1.13;1.10;;;;;;;;;;5033822;28;20385;-59
2023/06/13 14:26:15;;;;;;;0.90;0.90;;;;;;;;;;5034098;28;20021;-59
2023/06/13 14:28:41;;;;;;;1.23;1.15;;;;;;;;;;5033630;28;20057;-59
2023/06/13 14:31:09;;;;;;;1.10;0.80;;;;;;;;;;5034086;28;20057;-59
2023/06/13 14:33:35;;;;;;;0.82;0.82;;;;;;;;;;5033609;28;20600;-59
2023/06/13 14:36:00;;;;;;;2.05;0.80;;;;;;;;;;5033441;28;20030;-59
2023/06/13 14:38:25;;;;;;;1.00;1.00;;;;;;;;;;5033554;28;20056;-59
2023/06/13 14:40:51;;;;;;;8.32;6.63;;;;;;;;;;5033412;28;20423;-59